sensor_id;sensor_type;location;lat;lon;timestamp;P1;durP1;ratioP1;P2;durP2;ratioP2
70322;SDS011;57735;56.264;43.898;2023-10-31T00:00:09;17.38;;;7.35;;
70322;SDS011;57735;56.264;43.898;2023-10-31T00:02:42;18.10;;;6.88;;
70322;SDS011;57735;56.264;43.898;2023-10-31T00:05:13;19.55;;;7.63;;
70322;SDS011;57735;56.264;43.898;2023-10-31T00:07:44;19.80;;;8.05;;
70322;SDS011;57735;56.264;43.898;2023-10-31T00:10:14;28.80;;;9.50;;
70322;SDS011;57735;56.264;43.898;2023-10-31T00:12:45;33.83;;;9.90;;
70322;SDS011;57735;56.264;43.898;2023-10-31T00:15:16;31.70;;;9.48;;
70322;SDS011;57735;56.264;43.898;2023-10-31T00:17:47;26.00;;;8.73;;
70322;SDS011;57735;56.264;43.898;2023-10-31T00:20:18;24.05;;;8.73;;
70322;SDS011;57735;56.264;43.898;2023-10-31T00:22:51;32.08;;;9.27;;
70322;SDS011;57735;56.264;43.898;2023-10-31T00:25:22;46.30;;;10.20;;
70322;SDS011;57735;56.264;43.898;2023-10-31T00:27:53;26.73;;;8.93;;
70322;SDS011;57735;56.264;43.898;2023-10-31T00:30:23;26.35;;;7.78;;
70322;SDS011;57735;56.264;43.898;2023-10-31T00:32:54;32.55;;;8.32;;
70322;SDS011;57735;56.264;43.898;2023-10-31T00:35:25;25.55;;;8.57;;
70322;SDS011;57735;56.264;43.898;2023-10-31T00:37:56;28.80;;;8.15;;
70322;SDS011;57735;56.264;43.898;2023-10-31T00:40:27;24.23;;;7.53;;
70322;SDS011;57735;56.264;43.898;2023-10-31T00:43:00;25.08;;;8.57;;
70322;SDS011;57735;56.264;43.898;2023-10-31T00:45:31;26.05;;;7.75;;
70322;SDS011;57735;56.264;43.898;2023-10-31T00:48:02;23.90;;;7.70;;
70322;SDS011;57735;56.264;43.898;2023-10-31T00:50:32;21.75;;;7.85;;
70322;SDS011;57735;56.264;43.898;2023-10-31T00:53:06;21.33;;;8.02;;
70322;SDS011;57735;56.264;43.898;2023-10-31T00:55:38;23.92;;;7.55;;
70322;SDS011;57735;56.264;43.898;2023-10-31T00:58:09;22.55;;;7.25;;
70322;SDS011;57735;56.264;43.898;2023-10-31T01:00:40;29.30;;;7.95;;
70322;SDS011;57735;56.264;43.898;2023-10-31T01:03:14;33.17;;;8.05;;
70322;SDS011;57735;56.264;43.898;2023-10-31T01:05:46;32.05;;;8.50;;
70322;SDS011;57735;56.264;43.898;2023-10-31T01:08:17;65.68;;;10.32;;
70322;SDS011;57735;56.264;43.898;2023-10-31T01:10:48;28.60;;;7.53;;
70322;SDS011;57735;56.264;43.898;2023-10-31T01:13:19;37.83;;;8.35;;
70322;SDS011;57735;56.264;43.898;2023-10-31T01:15:54;52.75;;;9.23;;
70322;SDS011;57735;56.264;43.898;2023-10-31T01:18:27;48.58;;;10.43;;
70322;SDS011;57735;56.264;43.898;2023-10-31T01:20:58;60.45;;;9.75;;
70322;SDS011;57735;56.264;43.898;2023-10-31T01:23:29;42.67;;;9.18;;
70322;SDS011;57735;56.264;43.898;2023-10-31T01:26:00;24.30;;;8.50;;
70322;SDS011;57735;56.264;43.898;2023-10-31T01:28:30;40.55;;;8.90;;
70322;SDS011;57735;56.264;43.898;2023-10-31T01:31:01;39.42;;;9.05;;
70322;SDS011;57735;56.264;43.898;2023-10-31T01:33:32;31.88;;;9.00;;
70322;SDS011;57735;56.264;43.898;2023-10-31T01:36:03;31.52;;;8.77;;
70322;SDS011;57735;56.264;43.898;2023-10-31T01:38:34;45.60;;;8.57;;
70322;SDS011;57735;56.264;43.898;2023-10-31T01:41:04;34.65;;;8.52;;
70322;SDS011;57735;56.264;43.898;2023-10-31T01:43:36;27.98;;;9.18;;
70322;SDS011;57735;56.264;43.898;2023-10-31T01:46:08;50.50;;;8.70;;
70322;SDS011;57735;56.264;43.898;2023-10-31T01:48:39;48.30;;;9.27;;
70322;SDS011;57735;56.264;43.898;2023-10-31T01:51:10;30.98;;;8.52;;
70322;SDS011;57735;56.264;43.898;2023-10-31T01:53:41;30.90;;;8.80;;
70322;SDS011;57735;56.264;43.898;2023-10-31T01:56:12;43.00;;;10.48;;
70322;SDS011;57735;56.264;43.898;2023-10-31T01:58:44;34.80;;;8.93;;
70322;SDS011;57735;56.264;43.898;2023-10-31T02:01:16;25.73;;;8.65;;
70322;SDS011;57735;56.264;43.898;2023-10-31T02:03:47;29.63;;;8.70;;
70322;SDS011;57735;56.264;43.898;2023-10-31T02:06:18;30.35;;;9.90;;
70322;SDS011;57735;56.264;43.898;2023-10-31T02:08:49;41.78;;;10.45;;
70322;SDS011;57735;56.264;43.898;2023-10-31T02:11:20;35.85;;;10.43;;
70322;SDS011;57735;56.264;43.898;2023-10-31T02:13:53;31.80;;;8.82;;
70322;SDS011;57735;56.264;43.898;2023-10-31T02:16:25;37.67;;;8.90;;
70322;SDS011;57735;56.264;43.898;2023-10-31T02:18:56;33.83;;;8.90;;
70322;SDS011;57735;56.264;43.898;2023-10-31T02:21:29;26.75;;;7.97;;
70322;SDS011;57735;56.264;43.898;2023-10-31T02:24:02;25.75;;;7.18;;
70322;SDS011;57735;56.264;43.898;2023-10-31T02:26:34;22.75;;;7.75;;
70322;SDS011;57735;56.264;43.898;2023-10-31T02:29:05;22.17;;;6.65;;
70322;SDS011;57735;56.264;43.898;2023-10-31T02:31:39;23.50;;;7.43;;
70322;SDS011;57735;56.264;43.898;2023-10-31T02:34:10;24.05;;;7.45;;
70322;SDS011;57735;56.264;43.898;2023-10-31T02:36:44;21.30;;;7.25;;
70322;SDS011;57735;56.264;43.898;2023-10-31T02:39:14;28.00;;;7.70;;
70322;SDS011;57735;56.264;43.898;2023-10-31T02:41:48;22.95;;;7.13;;
70322;SDS011;57735;56.264;43.898;2023-10-31T02:44:19;20.48;;;6.88;;
70322;SDS011;57735;56.264;43.898;2023-10-31T02:46:49;21.05;;;7.30;;
70322;SDS011;57735;56.264;43.898;2023-10-31T02:49:20;25.30;;;9.15;;
70322;SDS011;57735;56.264;43.898;2023-10-31T02:51:51;22.27;;;7.78;;
70322;SDS011;57735;56.264;43.898;2023-10-31T02:54:22;19.58;;;7.43;;
70322;SDS011;57735;56.264;43.898;2023-10-31T02:56:53;20.25;;;7.43;;
70322;SDS011;57735;56.264;43.898;2023-10-31T02:59:26;18.05;;;8.00;;
70322;SDS011;57735;56.264;43.898;2023-10-31T03:01:57;25.02;;;8.30;;
70322;SDS011;57735;56.264;43.898;2023-10-31T03:04:28;23.33;;;8.60;;
70322;SDS011;57735;56.264;43.898;2023-10-31T03:06:58;25.40;;;9.82;;
70322;SDS011;57735;56.264;43.898;2023-10-31T03:09:29;23.05;;;10.55;;
70322;SDS011;57735;56.264;43.898;2023-10-31T03:12:00;32.40;;;12.43;;
70322;SDS011;57735;56.264;43.898;2023-10-31T03:14:31;32.83;;;12.82;;
70322;SDS011;57735;56.264;43.898;2023-10-31T03:17:01;43.30;;;14.75;;
70322;SDS011;57735;56.264;43.898;2023-10-31T03:19:32;38.75;;;13.30;;
70322;SDS011;57735;56.264;43.898;2023-10-31T03:22:03;37.83;;;14.35;;
70322;SDS011;57735;56.264;43.898;2023-10-31T03:24:34;39.80;;;14.50;;
70322;SDS011;57735;56.264;43.898;2023-10-31T03:27:07;40.88;;;15.23;;
70322;SDS011;57735;56.264;43.898;2023-10-31T03:29:38;54.20;;;15.93;;
70322;SDS011;57735;56.264;43.898;2023-10-31T03:32:08;51.92;;;16.25;;
70322;SDS011;57735;56.264;43.898;2023-10-31T03:34:40;51.92;;;15.57;;
70322;SDS011;57735;56.264;43.898;2023-10-31T03:37:11;47.05;;;15.25;;
70322;SDS011;57735;56.264;43.898;2023-10-31T03:39:42;43.10;;;14.52;;
70322;SDS011;57735;56.264;43.898;2023-10-31T03:42:12;46.40;;;16.85;;
70322;SDS011;57735;56.264;43.898;2023-10-31T03:44:43;54.75;;;16.75;;
70322;SDS011;57735;56.264;43.898;2023-10-31T03:47:17;49.58;;;15.95;;
70322;SDS011;57735;56.264;43.898;2023-10-31T03:49:48;46.38;;;16.27;;
70322;SDS011;57735;56.264;43.898;2023-10-31T03:52:19;49.63;;;17.13;;
70322;SDS011;57735;56.264;43.898;2023-10-31T03:54:51;50.55;;;17.13;;
70322;SDS011;57735;56.264;43.898;2023-10-31T03:57:22;55.10;;;17.85;;
70322;SDS011;57735;56.264;43.898;2023-10-31T03:59:53;57.83;;;17.67;;
70322;SDS011;57735;56.264;43.898;2023-10-31T04:02:24;48.35;;;16.75;;
70322;SDS011;57735;56.264;43.898;2023-10-31T04:04:54;48.50;;;16.13;;
70322;SDS011;57735;56.264;43.898;2023-10-31T04:07:28;45.90;;;16.58;;
70322;SDS011;57735;56.264;43.898;2023-10-31T04:09:58;46.15;;;15.57;;
70322;SDS011;57735;56.264;43.898;2023-10-31T04:12:29;41.08;;;15.38;;
70322;SDS011;57735;56.264;43.898;2023-10-31T04:15:03;43.28;;;15.88;;
70322;SDS011;57735;56.264;43.898;2023-10-31T04:17:40;50.05;;;17.35;;
70322;SDS011;57735;56.264;43.898;2023-10-31T04:20:13;43.60;;;15.75;;
70322;SDS011;57735;56.264;43.898;2023-10-31T04:22:47;40.65;;;16.05;;
70322;SDS011;57735;56.264;43.898;2023-10-31T04:25:18;44.30;;;16.40;;
70322;SDS011;57735;56.264;43.898;2023-10-31T04:27:49;40.40;;;14.93;;
70322;SDS011;57735;56.264;43.898;2023-10-31T04:30:22;48.00;;;16.10;;
70322;SDS011;57735;56.264;43.898;2023-10-31T04:32:52;34.30;;;13.52;;
70322;SDS011;57735;56.264;43.898;2023-10-31T04:35:25;45.75;;;16.52;;
70322;SDS011;57735;56.264;43.898;2023-10-31T04:37:56;36.30;;;13.70;;
70322;SDS011;57735;56.264;43.898;2023-10-31T04:40:27;46.92;;;15.38;;
70322;SDS011;57735;56.264;43.898;2023-10-31T04:43:00;35.00;;;13.90;;
70322;SDS011;57735;56.264;43.898;2023-10-31T04:45:31;40.22;;;14.88;;
70322;SDS011;57735;56.264;43.898;2023-10-31T04:48:02;29.45;;;11.50;;
70322;SDS011;57735;56.264;43.898;2023-10-31T04:50:36;43.80;;;14.55;;
70322;SDS011;57735;56.264;43.898;2023-10-31T04:53:07;41.03;;;13.98;;
70322;SDS011;57735;56.264;43.898;2023-10-31T04:55:40;34.42;;;13.38;;
70322;SDS011;57735;56.264;43.898;2023-10-31T04:58:11;35.85;;;14.10;;
70322;SDS011;57735;56.264;43.898;2023-10-31T05:00:46;39.53;;;14.93;;
70322;SDS011;57735;56.264;43.898;2023-10-31T05:03:17;43.38;;;13.90;;
70322;SDS011;57735;56.264;43.898;2023-10-31T05:05:48;37.35;;;14.55;;
70322;SDS011;57735;56.264;43.898;2023-10-31T05:08:19;32.55;;;12.52;;
70322;SDS011;57735;56.264;43.898;2023-10-31T05:10:49;32.67;;;13.60;;
70322;SDS011;57735;56.264;43.898;2023-10-31T05:13:20;32.47;;;13.20;;
70322;SDS011;57735;56.264;43.898;2023-10-31T05:15:51;25.58;;;11.55;;
70322;SDS011;57735;56.264;43.898;2023-10-31T05:18:22;24.58;;;10.15;;
70322;SDS011;57735;56.264;43.898;2023-10-31T05:20:53;18.13;;;8.27;;
70322;SDS011;57735;56.264;43.898;2023-10-31T05:23:23;18.05;;;7.70;;
70322;SDS011;57735;56.264;43.898;2023-10-31T05:25:57;16.05;;;7.65;;
70322;SDS011;57735;56.264;43.898;2023-10-31T05:28:28;15.38;;;7.15;;
70322;SDS011;57735;56.264;43.898;2023-10-31T05:30:59;14.15;;;7.10;;
70322;SDS011;57735;56.264;43.898;2023-10-31T05:33:29;14.35;;;7.43;;
70322;SDS011;57735;56.264;43.898;2023-10-31T05:36:01;14.93;;;6.70;;
70322;SDS011;57735;56.264;43.898;2023-10-31T05:38:36;10.93;;;5.30;;
70322;SDS011;57735;56.264;43.898;2023-10-31T05:41:07;12.45;;;5.22;;
70322;SDS011;57735;56.264;43.898;2023-10-31T05:43:38;8.57;;;4.88;;
70322;SDS011;57735;56.264;43.898;2023-10-31T05:46:09;8.95;;;4.03;;
70322;SDS011;57735;56.264;43.898;2023-10-31T05:48:42;6.28;;;3.40;;
70322;SDS011;57735;56.264;43.898;2023-10-31T05:51:22;7.95;;;3.60;;
70322;SDS011;57735;56.264;43.898;2023-10-31T05:53:55;6.25;;;3.60;;
70322;SDS011;57735;56.264;43.898;2023-10-31T05:56:26;7.38;;;3.58;;
70322;SDS011;57735;56.264;43.898;2023-10-31T05:58:57;8.60;;;4.10;;
70322;SDS011;57735;56.264;43.898;2023-10-31T06:01:28;7.13;;;3.85;;
70322;SDS011;57735;56.264;43.898;2023-10-31T06:03:59;8.40;;;4.15;;
70322;SDS011;57735;56.264;43.898;2023-10-31T06:06:32;8.18;;;4.00;;
70322;SDS011;57735;56.264;43.898;2023-10-31T06:09:03;7.88;;;3.90;;
70322;SDS011;57735;56.264;43.898;2023-10-31T06:11:34;5.07;;;3.25;;
70322;SDS011;57735;56.264;43.898;2023-10-31T06:14:05;7.20;;;3.45;;
70322;SDS011;57735;56.264;43.898;2023-10-31T06:16:43;7.63;;;3.53;;
70322;SDS011;57735;56.264;43.898;2023-10-31T06:19:14;7.40;;;3.28;;
70322;SDS011;57735;56.264;43.898;2023-10-31T06:21:45;7.03;;;3.25;;
70322;SDS011;57735;56.264;43.898;2023-10-31T06:24:15;3.67;;;2.47;;
70322;SDS011;57735;56.264;43.898;2023-10-31T06:26:46;7.20;;;3.35;;
70322;SDS011;57735;56.264;43.898;2023-10-31T06:29:17;6.50;;;3.42;;
70322;SDS011;57735;56.264;43.898;2023-10-31T06:31:48;4.35;;;2.60;;
70322;SDS011;57735;56.264;43.898;2023-10-31T06:34:19;6.72;;;3.28;;
70322;SDS011;57735;56.264;43.898;2023-10-31T06:36:49;5.57;;;2.40;;
70322;SDS011;57735;56.264;43.898;2023-10-31T06:39:22;6.40;;;2.55;;
70322;SDS011;57735;56.264;43.898;2023-10-31T06:41:56;5.25;;;2.50;;
70322;SDS011;57735;56.264;43.898;2023-10-31T06:44:26;4.40;;;2.25;;
70322;SDS011;57735;56.264;43.898;2023-10-31T06:46:57;6.35;;;2.80;;
70322;SDS011;57735;56.264;43.898;2023-10-31T06:49:28;3.97;;;2.05;;
70322;SDS011;57735;56.264;43.898;2023-10-31T06:51:59;2.88;;;1.90;;
70322;SDS011;57735;56.264;43.898;2023-10-31T06:54:29;3.67;;;2.17;;
70322;SDS011;57735;56.264;43.898;2023-10-31T06:57:01;2.80;;;1.85;;
70322;SDS011;57735;56.264;43.898;2023-10-31T06:59:33;2.42;;;1.40;;
70322;SDS011;57735;56.264;43.898;2023-10-31T07:02:07;1.88;;;1.50;;
70322;SDS011;57735;56.264;43.898;2023-10-31T07:04:39;2.55;;;1.65;;
70322;SDS011;57735;56.264;43.898;2023-10-31T07:07:10;1.88;;;1.15;;
70322;SDS011;57735;56.264;43.898;2023-10-31T07:09:41;2.22;;;1.30;;
70322;SDS011;57735;56.264;43.898;2023-10-31T07:12:12;3.50;;;1.60;;
70322;SDS011;57735;56.264;43.898;2023-10-31T07:14:45;2.90;;;1.30;;
70322;SDS011;57735;56.264;43.898;2023-10-31T07:17:16;2.50;;;1.60;;
70322;SDS011;57735;56.264;43.898;2023-10-31T07:19:47;4.20;;;1.48;;
70322;SDS011;57735;56.264;43.898;2023-10-31T07:22:20;4.28;;;1.67;;
70322;SDS011;57735;56.264;43.898;2023-10-31T07:24:52;2.80;;;1.58;;
70322;SDS011;57735;56.264;43.898;2023-10-31T07:27:23;6.10;;;2.30;;
70322;SDS011;57735;56.264;43.898;2023-10-31T07:29:54;6.78;;;2.88;;
70322;SDS011;57735;56.264;43.898;2023-10-31T07:32:25;7.85;;;3.33;;
70322;SDS011;57735;56.264;43.898;2023-10-31T07:34:56;3.30;;;1.73;;
70322;SDS011;57735;56.264;43.898;2023-10-31T07:37:30;4.93;;;1.98;;
70322;SDS011;57735;56.264;43.898;2023-10-31T07:40:02;2.65;;;1.80;;
70322;SDS011;57735;56.264;43.898;2023-10-31T07:42:35;3.35;;;1.60;;
70322;SDS011;57735;56.264;43.898;2023-10-31T07:45:06;2.95;;;1.60;;
70322;SDS011;57735;56.264;43.898;2023-10-31T07:47:43;3.63;;;2.30;;
70322;SDS011;57735;56.264;43.898;2023-10-31T07:50:15;5.40;;;1.80;;
70322;SDS011;57735;56.264;43.898;2023-10-31T07:52:47;3.72;;;1.85;;
70322;SDS011;57735;56.264;43.898;2023-10-31T07:57:53;3.50;;;1.95;;
70322;SDS011;57735;56.264;43.898;2023-10-31T08:00:28;6.07;;;1.85;;
70322;SDS011;57735;56.264;43.898;2023-10-31T08:03:01;2.85;;;1.90;;
70322;SDS011;57735;56.264;43.898;2023-10-31T08:05:32;4.03;;;2.15;;
70322;SDS011;57735;56.264;43.898;2023-10-31T08:08:03;3.55;;;2.00;;
70322;SDS011;57735;56.264;43.898;2023-10-31T08:10:37;4.60;;;2.20;;
70322;SDS011;57735;56.264;43.898;2023-10-31T08:13:10;2.03;;;1.40;;
70322;SDS011;57735;56.264;43.898;2023-10-31T08:15:41;2.85;;;1.58;;
70322;SDS011;57735;56.264;43.898;2023-10-31T08:18:14;4.35;;;1.52;;
70322;SDS011;57735;56.264;43.898;2023-10-31T08:20:45;2.72;;;1.67;;
70322;SDS011;57735;56.264;43.898;2023-10-31T08:23:21;2.60;;;1.40;;
70322;SDS011;57735;56.264;43.898;2023-10-31T08:25:52;3.45;;;1.42;;
70322;SDS011;57735;56.264;43.898;2023-10-31T08:28:23;2.97;;;1.40;;
70322;SDS011;57735;56.264;43.898;2023-10-31T08:30:57;7.68;;;2.15;;
70322;SDS011;57735;56.264;43.898;2023-10-31T08:33:28;3.70;;;1.80;;
70322;SDS011;57735;56.264;43.898;2023-10-31T08:35:59;4.57;;;2.42;;
70322;SDS011;57735;56.264;43.898;2023-10-31T08:38:31;3.95;;;1.90;;
70322;SDS011;57735;56.264;43.898;2023-10-31T08:41:10;3.10;;;2.05;;
70322;SDS011;57735;56.264;43.898;2023-10-31T08:43:40;3.33;;;1.73;;
70322;SDS011;57735;56.264;43.898;2023-10-31T08:46:11;9.68;;;2.72;;
70322;SDS011;57735;56.264;43.898;2023-10-31T08:48:42;2.92;;;1.80;;
70322;SDS011;57735;56.264;43.898;2023-10-31T08:51:14;3.83;;;2.00;;
70322;SDS011;57735;56.264;43.898;2023-10-31T08:53:47;2.15;;;1.55;;
70322;SDS011;57735;56.264;43.898;2023-10-31T08:56:18;6.10;;;3.10;;
70322;SDS011;57735;56.264;43.898;2023-10-31T08:58:50;6.50;;;2.40;;
70322;SDS011;57735;56.264;43.898;2023-10-31T09:01:26;6.38;;;2.92;;
70322;SDS011;57735;56.264;43.898;2023-10-31T09:03:59;7.38;;;3.10;;
70322;SDS011;57735;56.264;43.898;2023-10-31T09:06:30;5.28;;;2.50;;
70322;SDS011;57735;56.264;43.898;2023-10-31T09:09:01;4.70;;;2.63;;
70322;SDS011;57735;56.264;43.898;2023-10-31T09:11:34;4.43;;;2.50;;
70322;SDS011;57735;56.264;43.898;2023-10-31T09:14:04;5.10;;;2.15;;
70322;SDS011;57735;56.264;43.898;2023-10-31T09:16:35;9.30;;;2.22;;
70322;SDS011;57735;56.264;43.898;2023-10-31T09:19:06;5.53;;;2.42;;
70322;SDS011;57735;56.264;43.898;2023-10-31T09:21:40;5.05;;;2.78;;
70322;SDS011;57735;56.264;43.898;2023-10-31T09:24:10;4.93;;;2.97;;
70322;SDS011;57735;56.264;43.898;2023-10-31T09:26:42;6.72;;;2.90;;
70322;SDS011;57735;56.264;43.898;2023-10-31T09:29:13;3.72;;;2.13;;
70322;SDS011;57735;56.264;43.898;2023-10-31T09:31:44;3.30;;;1.92;;
70322;SDS011;57735;56.264;43.898;2023-10-31T09:34:15;3.30;;;1.52;;
70322;SDS011;57735;56.264;43.898;2023-10-31T09:36:48;2.90;;;1.88;;
70322;SDS011;57735;56.264;43.898;2023-10-31T09:39:19;2.72;;;1.55;;
70322;SDS011;57735;56.264;43.898;2023-10-31T09:41:50;1.90;;;1.45;;
70322;SDS011;57735;56.264;43.898;2023-10-31T09:44:21;1.65;;;1.10;;
70322;SDS011;57735;56.264;43.898;2023-10-31T09:46:52;1.90;;;1.30;;
70322;SDS011;57735;56.264;43.898;2023-10-31T09:49:23;6.80;;;1.90;;
70322;SDS011;57735;56.264;43.898;2023-10-31T09:51:56;8.27;;;1.95;;
70322;SDS011;57735;56.264;43.898;2023-10-31T09:54:29;4.53;;;2.17;;
70322;SDS011;57735;56.264;43.898;2023-10-31T09:57:03;3.30;;;2.25;;
70322;SDS011;57735;56.264;43.898;2023-10-31T09:59:34;3.88;;;2.13;;
70322;SDS011;57735;56.264;43.898;2023-10-31T10:02:05;4.63;;;2.30;;
70322;SDS011;57735;56.264;43.898;2023-10-31T10:04:37;3.65;;;2.20;;
70322;SDS011;57735;56.264;43.898;2023-10-31T10:07:08;3.95;;;2.17;;
70322;SDS011;57735;56.264;43.898;2023-10-31T10:09:46;5.28;;;2.58;;
70322;SDS011;57735;56.264;43.898;2023-10-31T10:12:17;4.50;;;2.55;;
70322;SDS011;57735;56.264;43.898;2023-10-31T10:14:48;5.15;;;2.35;;
70322;SDS011;57735;56.264;43.898;2023-10-31T10:17:23;5.03;;;2.83;;
70322;SDS011;57735;56.264;43.898;2023-10-31T10:20:05;8.05;;;3.30;;
70322;SDS011;57735;56.264;43.898;2023-10-31T10:25:16;11.30;;;4.63;;
70322;SDS011;57735;56.264;43.898;2023-10-31T10:27:52;11.85;;;4.47;;
70322;SDS011;57735;56.264;43.898;2023-10-31T10:30:23;7.53;;;3.75;;
70322;SDS011;57735;56.264;43.898;2023-10-31T10:32:54;10.27;;;4.03;;
70322;SDS011;57735;56.264;43.898;2023-10-31T10:35:24;7.57;;;3.40;;
70322;SDS011;57735;56.264;43.898;2023-10-31T10:37:58;13.50;;;3.70;;
70322;SDS011;57735;56.264;43.898;2023-10-31T10:40:30;4.35;;;1.98;;
70322;SDS011;57735;56.264;43.898;2023-10-31T10:43:01;3.15;;;1.80;;
70322;SDS011;57735;56.264;43.898;2023-10-31T10:45:41;5.60;;;2.50;;
70322;SDS011;57735;56.264;43.898;2023-10-31T10:48:16;3.70;;;1.90;;
70322;SDS011;57735;56.264;43.898;2023-10-31T10:50:57;4.00;;;2.45;;
70322;SDS011;57735;56.264;43.898;2023-10-31T10:53:48;3.28;;;2.30;;
70322;SDS011;57735;56.264;43.898;2023-10-31T10:56:25;4.63;;;2.67;;
70322;SDS011;57735;56.264;43.898;2023-10-31T10:59:01;5.28;;;3.05;;
70322;SDS011;57735;56.264;43.898;2023-10-31T11:01:36;3.70;;;2.65;;
70322;SDS011;57735;56.264;43.898;2023-10-31T11:04:21;7.75;;;3.45;;
70322;SDS011;57735;56.264;43.898;2023-10-31T11:06:52;6.90;;;2.67;;
70322;SDS011;57735;56.264;43.898;2023-10-31T11:09:23;4.63;;;2.40;;
70322;SDS011;57735;56.264;43.898;2023-10-31T11:11:54;5.72;;;2.75;;
70322;SDS011;57735;56.264;43.898;2023-10-31T11:14:25;5.40;;;3.05;;
70322;SDS011;57735;56.264;43.898;2023-10-31T11:17:00;4.53;;;2.88;;
70322;SDS011;57735;56.264;43.898;2023-10-31T11:19:35;5.18;;;3.28;;
70322;SDS011;57735;56.264;43.898;2023-10-31T11:22:06;6.97;;;3.30;;
70322;SDS011;57735;56.264;43.898;2023-10-31T11:24:37;6.97;;;3.58;;
70322;SDS011;57735;56.264;43.898;2023-10-31T11:27:08;10.77;;;4.68;;
70322;SDS011;57735;56.264;43.898;2023-10-31T11:29:39;11.23;;;4.88;;
70322;SDS011;57735;56.264;43.898;2023-10-31T11:32:10;8.52;;;4.60;;
70322;SDS011;57735;56.264;43.898;2023-10-31T11:34:42;10.02;;;4.78;;
70322;SDS011;57735;56.264;43.898;2023-10-31T11:37:23;11.57;;;5.20;;
70322;SDS011;57735;56.264;43.898;2023-10-31T11:42:53;9.07;;;3.95;;
70322;SDS011;57735;56.264;43.898;2023-10-31T11:45:28;7.18;;;3.38;;
70322;SDS011;57735;56.264;43.898;2023-10-31T11:48:00;5.28;;;3.03;;
70322;SDS011;57735;56.264;43.898;2023-10-31T11:50:33;6.78;;;3.25;;
70322;SDS011;57735;56.264;43.898;2023-10-31T11:53:05;8.15;;;3.85;;
70322;SDS011;57735;56.264;43.898;2023-10-31T11:55:44;6.00;;;3.13;;
70322;SDS011;57735;56.264;43.898;2023-10-31T11:58:20;7.20;;;4.18;;
70322;SDS011;57735;56.264;43.898;2023-10-31T12:00:53;9.25;;;4.43;;
70322;SDS011;57735;56.264;43.898;2023-10-31T12:03:42;9.20;;;3.83;;
70322;SDS011;57735;56.264;43.898;2023-10-31T12:06:17;6.90;;;4.13;;
70322;SDS011;57735;56.264;43.898;2023-10-31T12:08:50;10.15;;;4.25;;
70322;SDS011;57735;56.264;43.898;2023-10-31T12:11:23;10.75;;;5.25;;
70322;SDS011;57735;56.264;43.898;2023-10-31T12:13:58;12.68;;;5.35;;
70322;SDS011;57735;56.264;43.898;2023-10-31T12:16:38;16.63;;;6.07;;
70322;SDS011;57735;56.264;43.898;2023-10-31T12:19:09;15.35;;;5.70;;
70322;SDS011;57735;56.264;43.898;2023-10-31T12:21:44;9.38;;;4.30;;
70322;SDS011;57735;56.264;43.898;2023-10-31T12:24:20;13.57;;;5.07;;
70322;SDS011;57735;56.264;43.898;2023-10-31T12:26:51;8.65;;;4.32;;
70322;SDS011;57735;56.264;43.898;2023-10-31T12:29:22;13.23;;;4.88;;
70322;SDS011;57735;56.264;43.898;2023-10-31T12:31:53;19.83;;;4.70;;
70322;SDS011;57735;56.264;43.898;2023-10-31T12:34:25;26.02;;;4.72;;
70322;SDS011;57735;56.264;43.898;2023-10-31T12:36:58;26.83;;;5.75;;
70322;SDS011;57735;56.264;43.898;2023-10-31T12:39:31;19.08;;;6.30;;
70322;SDS011;57735;56.264;43.898;2023-10-31T12:42:02;33.80;;;5.47;;
70322;SDS011;57735;56.264;43.898;2023-10-31T12:44:33;24.52;;;5.85;;
70322;SDS011;57735;56.264;43.898;2023-10-31T12:47:07;18.58;;;5.05;;
70322;SDS011;57735;56.264;43.898;2023-10-31T12:49:38;20.85;;;5.72;;
70322;SDS011;57735;56.264;43.898;2023-10-31T12:52:09;17.98;;;6.30;;
70322;SDS011;57735;56.264;43.898;2023-10-31T12:54:42;15.85;;;4.28;;
70322;SDS011;57735;56.264;43.898;2023-10-31T12:57:15;27.65;;;7.00;;
70322;SDS011;57735;56.264;43.898;2023-10-31T12:59:46;25.33;;;6.72;;
70322;SDS011;57735;56.264;43.898;2023-10-31T13:02:19;17.92;;;5.55;;
70322;SDS011;57735;56.264;43.898;2023-10-31T13:04:50;12.93;;;4.85;;
70322;SDS011;57735;56.264;43.898;2023-10-31T13:07:26;14.20;;;5.10;;
70322;SDS011;57735;56.264;43.898;2023-10-31T13:09:59;12.43;;;4.78;;
70322;SDS011;57735;56.264;43.898;2023-10-31T13:12:31;12.77;;;4.57;;
70322;SDS011;57735;56.264;43.898;2023-10-31T13:15:04;15.27;;;3.70;;
70322;SDS011;57735;56.264;43.898;2023-10-31T13:17:37;11.90;;;4.97;;
70322;SDS011;57735;56.264;43.898;2023-10-31T13:20:09;12.30;;;4.45;;
70322;SDS011;57735;56.264;43.898;2023-10-31T13:22:46;10.10;;;4.53;;
70322;SDS011;57735;56.264;43.898;2023-10-31T13:25:26;13.80;;;4.22;;
70322;SDS011;57735;56.264;43.898;2023-10-31T13:27:57;8.57;;;3.63;;
70322;SDS011;57735;56.264;43.898;2023-10-31T13:30:29;10.18;;;3.38;;
70322;SDS011;57735;56.264;43.898;2023-10-31T13:33:00;6.78;;;2.65;;
70322;SDS011;57735;56.264;43.898;2023-10-31T13:35:30;8.50;;;2.88;;
70322;SDS011;57735;56.264;43.898;2023-10-31T13:38:02;7.03;;;2.75;;
70322;SDS011;57735;56.264;43.898;2023-10-31T13:40:33;8.85;;;3.92;;
70322;SDS011;57735;56.264;43.898;2023-10-31T13:43:04;11.88;;;5.40;;
70322;SDS011;57735;56.264;43.898;2023-10-31T13:45:35;7.38;;;3.30;;
70322;SDS011;57735;56.264;43.898;2023-10-31T13:48:10;8.73;;;4.43;;
70322;SDS011;57735;56.264;43.898;2023-10-31T13:50:41;9.73;;;4.15;;
70322;SDS011;57735;56.264;43.898;2023-10-31T13:53:12;13.48;;;5.32;;
70322;SDS011;57735;56.264;43.898;2023-10-31T13:55:43;18.02;;;4.50;;
70322;SDS011;57735;56.264;43.898;2023-10-31T13:58:14;10.70;;;4.30;;
70322;SDS011;57735;56.264;43.898;2023-10-31T14:00:48;13.60;;;4.18;;
70322;SDS011;57735;56.264;43.898;2023-10-31T14:03:19;18.90;;;4.72;;
70322;SDS011;57735;56.264;43.898;2023-10-31T14:05:50;21.40;;;5.85;;
70322;SDS011;57735;56.264;43.898;2023-10-31T14:08:21;17.00;;;5.50;;
70322;SDS011;57735;56.264;43.898;2023-10-31T14:10:54;28.88;;;5.78;;
70322;SDS011;57735;56.264;43.898;2023-10-31T14:13:27;36.42;;;5.32;;
70322;SDS011;57735;56.264;43.898;2023-10-31T14:15:59;26.85;;;5.18;;
70322;SDS011;57735;56.264;43.898;2023-10-31T14:18:30;22.75;;;5.32;;
70322;SDS011;57735;56.264;43.898;2023-10-31T14:21:01;20.20;;;4.70;;
70322;SDS011;57735;56.264;43.898;2023-10-31T14:23:32;20.38;;;5.00;;
70322;SDS011;57735;56.264;43.898;2023-10-31T14:26:03;14.43;;;5.55;;
70322;SDS011;57735;56.264;43.898;2023-10-31T14:28:35;18.65;;;4.88;;
70322;SDS011;57735;56.264;43.898;2023-10-31T14:31:06;19.70;;;4.63;;
70322;SDS011;57735;56.264;43.898;2023-10-31T14:33:36;13.50;;;4.70;;
70322;SDS011;57735;56.264;43.898;2023-10-31T14:36:08;31.40;;;10.35;;
70322;SDS011;57735;56.264;43.898;2023-10-31T14:38:41;28.45;;;11.68;;
70322;SDS011;57735;56.264;43.898;2023-10-31T14:41:12;24.08;;;10.23;;
70322;SDS011;57735;56.264;43.898;2023-10-31T14:43:44;31.83;;;9.65;;
70322;SDS011;57735;56.264;43.898;2023-10-31T14:46:18;22.80;;;9.70;;
70322;SDS011;57735;56.264;43.898;2023-10-31T14:48:49;19.23;;;7.70;;
70322;SDS011;57735;56.264;43.898;2023-10-31T14:51:20;24.38;;;8.40;;
70322;SDS011;57735;56.264;43.898;2023-10-31T14:53:51;18.02;;;8.65;;
70322;SDS011;57735;56.264;43.898;2023-10-31T14:56:21;36.47;;;13.63;;
70322;SDS011;57735;56.264;43.898;2023-10-31T14:58:52;26.70;;;11.13;;